sensor_id;sensor_type;location;lat;lon;timestamp;P1;durP1;ratioP1;P2;durP2;ratioP2
70532;SDS011;58088;51.186;17.130;2024-03-07T00:06:40;44.40;;;18.50;;
70532;SDS011;58088;51.186;17.130;2024-03-07T00:09:07;39.90;;;17.40;;
70532;SDS011;58088;51.186;17.130;2024-03-07T00:11:35;39.60;;;16.90;;
70532;SDS011;58088;51.186;17.130;2024-03-07T00:14:01;37.50;;;17.90;;
70532;SDS011;58088;51.186;17.130;2024-03-07T00:16:27;42.50;;;18.10;;
70532;SDS011;58088;51.186;17.130;2024-03-07T00:18:54;37.10;;;15.40;;
70532;SDS011;58088;51.186;17.130;2024-03-07T00:21:21;37.50;;;18.30;;
70532;SDS011;58088;51.186;17.130;2024-03-07T00:23:48;37.80;;;16.80;;
70532;SDS011;58088;51.186;17.130;2024-03-07T00:26:14;39.50;;;15.80;;
70532;SDS011;58088;51.186;17.130;2024-03-07T00:28:41;34.00;;;15.70;;
70532;SDS011;58088;51.186;17.130;2024-03-07T00:31:08;35.10;;;14.90;;
70532;SDS011;58088;51.186;17.130;2024-03-07T00:33:35;35.30;;;15.50;;
70532;SDS011;58088;51.186;17.130;2024-03-07T00:36:02;36.50;;;16.00;;
70532;SDS011;58088;51.186;17.130;2024-03-07T00:38:28;34.60;;;14.10;;
70532;SDS011;58088;51.186;17.130;2024-03-07T00:40:54;34.00;;;14.50;;
70532;SDS011;58088;51.186;17.130;2024-03-07T00:43:20;35.20;;;16.10;;
70532;SDS011;58088;51.186;17.130;2024-03-07T00:45:47;36.60;;;16.40;;
70532;SDS011;58088;51.186;17.130;2024-03-07T00:48:16;27.50;;;11.40;;
70532;SDS011;58088;51.186;17.130;2024-03-07T00:50:42;32.60;;;14.40;;
70532;SDS011;58088;51.186;17.130;2024-03-07T00:53:09;33.60;;;15.90;;
70532;SDS011;58088;51.186;17.130;2024-03-07T00:55:36;27.90;;;12.60;;
70532;SDS011;58088;51.186;17.130;2024-03-07T00:58:02;36.70;;;16.10;;
70532;SDS011;58088;51.186;17.130;2024-03-07T01:00:28;34.80;;;16.10;;
70532;SDS011;58088;51.186;17.130;2024-03-07T01:02:56;30.00;;;13.50;;
70532;SDS011;58088;51.186;17.130;2024-03-07T01:05:23;34.40;;;15.20;;
70532;SDS011;58088;51.186;17.130;2024-03-07T01:07:49;33.40;;;15.50;;
70532;SDS011;58088;51.186;17.130;2024-03-07T01:10:16;33.90;;;15.50;;
70532;SDS011;58088;51.186;17.130;2024-03-07T01:12:42;35.10;;;15.30;;
70532;SDS011;58088;51.186;17.130;2024-03-07T01:15:09;34.40;;;14.60;;
70532;SDS011;58088;51.186;17.130;2024-03-07T01:17:37;31.60;;;15.20;;
70532;SDS011;58088;51.186;17.130;2024-03-07T01:20:03;37.00;;;15.30;;
70532;SDS011;58088;51.186;17.130;2024-03-07T01:22:30;32.30;;;14.20;;
70532;SDS011;58088;51.186;17.130;2024-03-07T01:24:56;31.70;;;15.30;;
70532;SDS011;58088;51.186;17.130;2024-03-07T01:27:23;31.90;;;15.60;;
70532;SDS011;58088;51.186;17.130;2024-03-07T01:29:50;27.10;;;11.80;;
70532;SDS011;58088;51.186;17.130;2024-03-07T01:32:16;33.30;;;14.60;;
70532;SDS011;58088;51.186;17.130;2024-03-07T01:34:42;31.10;;;14.50;;
70532;SDS011;58088;51.186;17.130;2024-03-07T01:37:08;33.60;;;14.70;;
70532;SDS011;58088;51.186;17.130;2024-03-07T01:39:35;34.60;;;13.90;;
70532;SDS011;58088;51.186;17.130;2024-03-07T01:42:01;32.40;;;14.90;;
70532;SDS011;58088;51.186;17.130;2024-03-07T01:44:27;35.50;;;15.10;;
70532;SDS011;58088;51.186;17.130;2024-03-07T01:46:58;28.60;;;12.70;;
70532;SDS011;58088;51.186;17.130;2024-03-07T01:49:32;36.10;;;16.00;;
70532;SDS011;58088;51.186;17.130;2024-03-07T01:51:58;35.70;;;15.20;;
70532;SDS011;58088;51.186;17.130;2024-03-07T01:54:26;32.60;;;13.80;;
70532;SDS011;58088;51.186;17.130;2024-03-07T01:56:55;33.00;;;14.70;;
70532;SDS011;58088;51.186;17.130;2024-03-07T01:59:22;33.10;;;14.00;;
70532;SDS011;58088;51.186;17.130;2024-03-07T02:01:52;32.90;;;14.50;;
70532;SDS011;58088;51.186;17.130;2024-03-07T02:04:19;33.80;;;14.50;;
70532;SDS011;58088;51.186;17.130;2024-03-07T02:06:45;34.30;;;14.30;;
70532;SDS011;58088;51.186;17.130;2024-03-07T02:09:11;34.10;;;14.40;;
70532;SDS011;58088;51.186;17.130;2024-03-07T02:11:39;30.20;;;12.40;;
70532;SDS011;58088;51.186;17.130;2024-03-07T02:14:06;28.50;;;13.30;;
70532;SDS011;58088;51.186;17.130;2024-03-07T02:16:32;33.80;;;15.50;;
70532;SDS011;58088;51.186;17.130;2024-03-07T02:18:58;19.40;;;8.70;;
70532;SDS011;58088;51.186;17.130;2024-03-07T02:21:25;31.20;;;14.20;;
70532;SDS011;58088;51.186;17.130;2024-03-07T02:23:51;32.80;;;13.20;;
70532;SDS011;58088;51.186;17.130;2024-03-07T02:26:18;26.30;;;11.60;;
70532;SDS011;58088;51.186;17.130;2024-03-07T02:28:45;28.80;;;13.10;;
70532;SDS011;58088;51.186;17.130;2024-03-07T02:31:11;33.00;;;14.60;;
70532;SDS011;58088;51.186;17.130;2024-03-07T02:33:38;33.30;;;13.80;;
70532;SDS011;58088;51.186;17.130;2024-03-07T02:36:06;34.20;;;14.90;;
70532;SDS011;58088;51.186;17.130;2024-03-07T02:38:33;30.60;;;13.90;;
70532;SDS011;58088;51.186;17.130;2024-03-07T02:41:00;35.30;;;13.50;;
70532;SDS011;58088;51.186;17.130;2024-03-07T02:43:26;29.80;;;13.00;;
70532;SDS011;58088;51.186;17.130;2024-03-07T02:45:53;30.70;;;13.80;;
70532;SDS011;58088;51.186;17.130;2024-03-07T02:48:20;31.40;;;13.80;;
70532;SDS011;58088;51.186;17.130;2024-03-07T02:50:46;26.80;;;12.20;;
70532;SDS011;58088;51.186;17.130;2024-03-07T02:53:13;33.40;;;14.00;;
70532;SDS011;58088;51.186;17.130;2024-03-07T02:55:39;29.20;;;13.00;;
70532;SDS011;58088;51.186;17.130;2024-03-07T02:58:07;26.50;;;12.60;;
70532;SDS011;58088;51.186;17.130;2024-03-07T03:00:33;29.80;;;13.90;;
70532;SDS011;58088;51.186;17.130;2024-03-07T03:03:18;27.70;;;11.80;;
70532;SDS011;58088;51.186;17.130;2024-03-07T03:05:44;23.70;;;10.20;;
70532;SDS011;58088;51.186;17.130;2024-03-07T03:08:11;29.00;;;12.70;;
70532;SDS011;58088;51.186;17.130;2024-03-07T03:10:39;30.70;;;13.80;;
70532;SDS011;58088;51.186;17.130;2024-03-07T03:13:08;29.60;;;14.10;;
70532;SDS011;58088;51.186;17.130;2024-03-07T03:15:36;33.70;;;14.20;;
70532;SDS011;58088;51.186;17.130;2024-03-07T03:18:07;32.40;;;14.70;;
70532;SDS011;58088;51.186;17.130;2024-03-07T03:20:34;31.00;;;12.80;;
70532;SDS011;58088;51.186;17.130;2024-03-07T03:23:06;29.00;;;12.50;;
70532;SDS011;58088;51.186;17.130;2024-03-07T03:25:38;29.70;;;13.50;;
70532;SDS011;58088;51.186;17.130;2024-03-07T03:28:06;32.30;;;13.60;;
70532;SDS011;58088;51.186;17.130;2024-03-07T03:30:40;31.70;;;13.30;;
70532;SDS011;58088;51.186;17.130;2024-03-07T03:33:09;30.70;;;13.50;;
70532;SDS011;58088;51.186;17.130;2024-03-07T03:35:37;31.60;;;13.30;;
70532;SDS011;58088;51.186;17.130;2024-03-07T03:38:06;26.20;;;10.80;;
70532;SDS011;58088;51.186;17.130;2024-03-07T03:40:34;29.90;;;13.40;;
70532;SDS011;58088;51.186;17.130;2024-03-07T03:43:02;28.50;;;12.90;;
70532;SDS011;58088;51.186;17.130;2024-03-07T03:45:29;30.90;;;13.90;;
70532;SDS011;58088;51.186;17.130;2024-03-07T03:48:00;31.70;;;13.90;;
70532;SDS011;58088;51.186;17.130;2024-03-07T03:50:27;32.80;;;14.50;;
70532;SDS011;58088;51.186;17.130;2024-03-07T03:52:55;33.40;;;14.90;;
70532;SDS011;58088;51.186;17.130;2024-03-07T03:55:23;37.20;;;16.10;;
70532;SDS011;58088;51.186;17.130;2024-03-07T03:57:50;32.20;;;15.30;;
70532;SDS011;58088;51.186;17.130;2024-03-07T04:00:17;33.00;;;14.30;;
70532;SDS011;58088;51.186;17.130;2024-03-07T04:02:46;28.90;;;13.30;;
70532;SDS011;58088;51.186;17.130;2024-03-07T04:05:18;34.60;;;14.90;;
70532;SDS011;58088;51.186;17.130;2024-03-07T04:07:46;34.50;;;14.00;;
70532;SDS011;58088;51.186;17.130;2024-03-07T04:10:14;34.70;;;15.10;;
70532;SDS011;58088;51.186;17.130;2024-03-07T04:12:42;29.50;;;14.50;;
70532;SDS011;58088;51.186;17.130;2024-03-07T04:15:11;33.80;;;15.60;;
70532;SDS011;58088;51.186;17.130;2024-03-07T04:17:42;33.60;;;15.40;;
70532;SDS011;58088;51.186;17.130;2024-03-07T04:20:11;33.60;;;14.70;;
70532;SDS011;58088;51.186;17.130;2024-03-07T04:22:39;35.60;;;14.20;;
70532;SDS011;58088;51.186;17.130;2024-03-07T04:25:06;33.90;;;15.10;;
70532;SDS011;58088;51.186;17.130;2024-03-07T04:27:34;32.50;;;15.10;;
70532;SDS011;58088;51.186;17.130;2024-03-07T04:30:08;33.70;;;14.60;;
70532;SDS011;58088;51.186;17.130;2024-03-07T04:32:37;36.00;;;14.70;;
70532;SDS011;58088;51.186;17.130;2024-03-07T04:35:08;29.60;;;14.80;;
70532;SDS011;58088;51.186;17.130;2024-03-07T04:37:39;31.70;;;14.40;;
70532;SDS011;58088;51.186;17.130;2024-03-07T04:40:08;33.40;;;15.30;;
70532;SDS011;58088;51.186;17.130;2024-03-07T04:42:46;23.70;;;9.40;;
70532;SDS011;58088;51.186;17.130;2024-03-07T04:45:15;33.30;;;14.80;;
70532;SDS011;58088;51.186;17.130;2024-03-07T04:47:43;35.10;;;15.10;;
70532;SDS011;58088;51.186;17.130;2024-03-07T04:50:13;32.00;;;14.70;;
70532;SDS011;58088;51.186;17.130;2024-03-07T04:52:43;32.30;;;15.00;;
70532;SDS011;58088;51.186;17.130;2024-03-07T04:55:10;34.50;;;15.40;;
70532;SDS011;58088;51.186;17.130;2024-03-07T04:57:36;32.00;;;13.10;;
70532;SDS011;58088;51.186;17.130;2024-03-07T05:00:09;34.00;;;15.00;;
70532;SDS011;58088;51.186;17.130;2024-03-07T05:02:41;33.30;;;14.20;;
70532;SDS011;58088;51.186;17.130;2024-03-07T05:05:07;35.10;;;14.00;;
70532;SDS011;58088;51.186;17.130;2024-03-07T05:07:34;31.20;;;14.40;;
70532;SDS011;58088;51.186;17.130;2024-03-07T05:10:04;31.20;;;13.90;;
70532;SDS011;58088;51.186;17.130;2024-03-07T05:12:42;30.20;;;12.90;;
70532;SDS011;58088;51.186;17.130;2024-03-07T05:15:09;31.50;;;13.50;;
70532;SDS011;58088;51.186;17.130;2024-03-07T05:17:35;30.10;;;12.60;;
70532;SDS011;58088;51.186;17.130;2024-03-07T05:20:03;29.30;;;12.60;;
70532;SDS011;58088;51.186;17.130;2024-03-07T05:22:39;24.50;;;11.30;;
70532;SDS011;58088;51.186;17.130;2024-03-07T05:25:17;35.40;;;14.50;;
70532;SDS011;58088;51.186;17.130;2024-03-07T05:27:50;26.40;;;12.70;;
70532;SDS011;58088;51.186;17.130;2024-03-07T05:30:16;31.50;;;15.40;;
70532;SDS011;58088;51.186;17.130;2024-03-07T05:32:42;24.80;;;11.40;;
70532;SDS011;58088;51.186;17.130;2024-03-07T05:35:09;23.40;;;10.30;;
70532;SDS011;58088;51.186;17.130;2024-03-07T05:37:36;31.50;;;14.50;;
70532;SDS011;58088;51.186;17.130;2024-03-07T05:40:03;28.10;;;11.20;;
70532;SDS011;58088;51.186;17.130;2024-03-07T05:42:29;32.60;;;12.90;;
70532;SDS011;58088;51.186;17.130;2024-03-07T05:44:57;25.90;;;10.90;;
70532;SDS011;58088;51.186;17.130;2024-03-07T05:47:23;29.40;;;14.20;;
70532;SDS011;58088;51.186;17.130;2024-03-07T05:49:50;23.90;;;11.10;;
70532;SDS011;58088;51.186;17.130;2024-03-07T05:52:16;31.90;;;12.70;;
70532;SDS011;58088;51.186;17.130;2024-03-07T05:54:43;26.70;;;11.90;;
70532;SDS011;58088;51.186;17.130;2024-03-07T05:57:09;31.90;;;13.80;;
70532;SDS011;58088;51.186;17.130;2024-03-07T05:59:37;30.00;;;13.90;;
70532;SDS011;58088;51.186;17.130;2024-03-07T06:02:04;27.70;;;12.90;;
70532;SDS011;58088;51.186;17.130;2024-03-07T06:04:31;24.20;;;10.90;;
70532;SDS011;58088;51.186;17.130;2024-03-07T06:06:58;25.10;;;10.20;;
70532;SDS011;58088;51.186;17.130;2024-03-07T06:09:24;23.90;;;11.00;;
70532;SDS011;58088;51.186;17.130;2024-03-07T06:11:52;31.90;;;14.30;;
70532;SDS011;58088;51.186;17.130;2024-03-07T06:14:18;28.10;;;12.70;;
70532;SDS011;58088;51.186;17.130;2024-03-07T06:16:45;32.40;;;14.20;;
70532;SDS011;58088;51.186;17.130;2024-03-07T06:19:11;30.40;;;13.70;;
70532;SDS011;58088;51.186;17.130;2024-03-07T06:21:39;22.10;;;9.50;;
70532;SDS011;58088;51.186;17.130;2024-03-07T06:24:07;31.10;;;14.30;;
70532;SDS011;58088;51.186;17.130;2024-03-07T06:26:36;24.80;;;11.60;;
70532;SDS011;58088;51.186;17.130;2024-03-07T06:29:16;24.40;;;11.10;;
70532;SDS011;58088;51.186;17.130;2024-03-07T06:31:44;34.70;;;15.60;;
70532;SDS011;58088;51.186;17.130;2024-03-07T06:34:14;27.90;;;11.10;;
70532;SDS011;58088;51.186;17.130;2024-03-07T06:36:40;22.00;;;9.40;;
70532;SDS011;58088;51.186;17.130;2024-03-07T06:39:07;25.30;;;12.00;;
70532;SDS011;58088;51.186;17.130;2024-03-07T06:41:36;31.50;;;13.20;;
70532;SDS011;58088;51.186;17.130;2024-03-07T06:44:03;27.50;;;12.90;;
70532;SDS011;58088;51.186;17.130;2024-03-07T06:46:29;29.10;;;13.60;;
70532;SDS011;58088;51.186;17.130;2024-03-07T06:48:57;30.50;;;13.50;;
70532;SDS011;58088;51.186;17.130;2024-03-07T06:51:24;35.10;;;15.30;;
70532;SDS011;58088;51.186;17.130;2024-03-07T06:53:50;36.00;;;14.90;;
70532;SDS011;58088;51.186;17.130;2024-03-07T06:56:17;36.50;;;15.70;;
70532;SDS011;58088;51.186;17.130;2024-03-07T06:58:43;33.30;;;14.70;;
70532;SDS011;58088;51.186;17.130;2024-03-07T07:01:12;27.50;;;11.70;;
70532;SDS011;58088;51.186;17.130;2024-03-07T07:03:41;27.40;;;12.70;;
70532;SDS011;58088;51.186;17.130;2024-03-07T07:06:10;31.00;;;14.00;;
70532;SDS011;58088;51.186;17.130;2024-03-07T07:08:37;30.00;;;14.00;;
70532;SDS011;58088;51.186;17.130;2024-03-07T07:11:04;23.10;;;11.20;;
70532;SDS011;58088;51.186;17.130;2024-03-07T07:13:31;26.80;;;12.50;;
70532;SDS011;58088;51.186;17.130;2024-03-07T07:15:57;30.40;;;13.60;;
70532;SDS011;58088;51.186;17.130;2024-03-07T07:18:23;30.70;;;14.50;;
70532;SDS011;58088;51.186;17.130;2024-03-07T07:20:49;34.00;;;14.80;;
70532;SDS011;58088;51.186;17.130;2024-03-07T07:23:19;34.70;;;14.10;;
70532;SDS011;58088;51.186;17.130;2024-03-07T07:25:46;40.40;;;15.60;;
70532;SDS011;58088;51.186;17.130;2024-03-07T07:28:12;31.20;;;12.90;;
70532;SDS011;58088;51.186;17.130;2024-03-07T07:30:39;22.50;;;8.70;;
70532;SDS011;58088;51.186;17.130;2024-03-07T07:33:05;31.60;;;14.20;;
70532;SDS011;58088;51.186;17.130;2024-03-07T07:35:31;28.30;;;13.30;;
70532;SDS011;58088;51.186;17.130;2024-03-07T07:38:00;26.50;;;12.10;;
70532;SDS011;58088;51.186;17.130;2024-03-07T07:40:26;31.50;;;15.00;;
70532;SDS011;58088;51.186;17.130;2024-03-07T07:42:54;32.00;;;14.10;;
70532;SDS011;58088;51.186;17.130;2024-03-07T07:45:22;30.80;;;14.90;;
70532;SDS011;58088;51.186;17.130;2024-03-07T07:47:50;22.70;;;10.60;;
70532;SDS011;58088;51.186;17.130;2024-03-07T07:50:20;31.60;;;13.80;;
70532;SDS011;58088;51.186;17.130;2024-03-07T07:52:58;25.90;;;12.50;;
70532;SDS011;58088;51.186;17.130;2024-03-07T07:55:28;30.90;;;13.80;;
70532;SDS011;58088;51.186;17.130;2024-03-07T07:57:59;32.30;;;14.60;;
70532;SDS011;58088;51.186;17.130;2024-03-07T08:00:29;26.20;;;12.80;;
70532;SDS011;58088;51.186;17.130;2024-03-07T08:03:01;30.90;;;13.50;;
70532;SDS011;58088;51.186;17.130;2024-03-07T08:05:41;27.30;;;12.90;;
70532;SDS011;58088;51.186;17.130;2024-03-07T08:08:09;26.90;;;13.30;;
70532;SDS011;58088;51.186;17.130;2024-03-07T08:10:37;28.20;;;13.40;;
70532;SDS011;58088;51.186;17.130;2024-03-07T08:13:05;28.20;;;13.50;;
70532;SDS011;58088;51.186;17.130;2024-03-07T08:15:36;28.10;;;13.40;;
70532;SDS011;58088;51.186;17.130;2024-03-07T08:18:02;26.90;;;12.80;;
70532;SDS011;58088;51.186;17.130;2024-03-07T08:20:35;26.40;;;11.30;;
70532;SDS011;58088;51.186;17.130;2024-03-07T08:23:01;29.00;;;12.80;;
70532;SDS011;58088;51.186;17.130;2024-03-07T08:25:28;29.70;;;14.60;;
70532;SDS011;58088;51.186;17.130;2024-03-07T08:27:56;26.90;;;12.10;;
70532;SDS011;58088;51.186;17.130;2024-03-07T08:30:24;26.90;;;12.50;;
70532;SDS011;58088;51.186;17.130;2024-03-07T08:32:54;27.40;;;12.70;;
70532;SDS011;58088;51.186;17.130;2024-03-07T08:35:22;26.70;;;11.90;;
70532;SDS011;58088;51.186;17.130;2024-03-07T08:37:51;27.10;;;13.10;;
70532;SDS011;58088;51.186;17.130;2024-03-07T08:40:23;28.10;;;12.50;;
70532;SDS011;58088;51.186;17.130;2024-03-07T08:42:52;28.20;;;14.00;;
70532;SDS011;58088;51.186;17.130;2024-03-07T08:45:22;28.80;;;13.20;;
70532;SDS011;58088;51.186;17.130;2024-03-07T08:47:50;28.50;;;12.80;;
70532;SDS011;58088;51.186;17.130;2024-03-07T08:50:20;27.00;;;13.60;;
70532;SDS011;58088;51.186;17.130;2024-03-07T08:52:51;25.50;;;12.70;;
70532;SDS011;58088;51.186;17.130;2024-03-07T08:55:25;28.30;;;13.00;;
70532;SDS011;58088;51.186;17.130;2024-03-07T08:57:51;33.20;;;15.50;;
70532;SDS011;58088;51.186;17.130;2024-03-07T09:00:19;33.50;;;15.00;;
70532;SDS011;58088;51.186;17.130;2024-03-07T09:02:56;23.10;;;10.90;;
70532;SDS011;58088;51.186;17.130;2024-03-07T09:05:24;30.00;;;14.00;;
70532;SDS011;58088;51.186;17.130;2024-03-07T09:07:53;30.70;;;14.10;;
70532;SDS011;58088;51.186;17.130;2024-03-07T09:10:20;23.40;;;9.90;;
70532;SDS011;58088;51.186;17.130;2024-03-07T09:12:50;31.00;;;14.00;;
70532;SDS011;58088;51.186;17.130;2024-03-07T09:15:18;33.10;;;14.80;;
70532;SDS011;58088;51.186;17.130;2024-03-07T09:17:47;26.50;;;12.10;;
70532;SDS011;58088;51.186;17.130;2024-03-07T09:20:13;26.80;;;12.60;;
70532;SDS011;58088;51.186;17.130;2024-03-07T09:22:45;25.60;;;10.20;;
70532;SDS011;58088;51.186;17.130;2024-03-07T09:25:13;29.10;;;12.20;;
70532;SDS011;58088;51.186;17.130;2024-03-07T09:27:40;19.00;;;8.90;;
70532;SDS011;58088;51.186;17.130;2024-03-07T09:30:08;29.00;;;14.00;;
70532;SDS011;58088;51.186;17.130;2024-03-07T09:32:41;26.30;;;12.20;;
70532;SDS011;58088;51.186;17.130;2024-03-07T09:35:09;26.90;;;10.30;;
70532;SDS011;58088;51.186;17.130;2024-03-07T09:37:41;34.30;;;14.70;;
70532;SDS011;58088;51.186;17.130;2024-03-07T09:40:09;29.60;;;13.00;;
70532;SDS011;58088;51.186;17.130;2024-03-07T09:42:45;18.40;;;8.30;;
70532;SDS011;58088;51.186;17.130;2024-03-07T09:45:15;25.90;;;11.70;;
70532;SDS011;58088;51.186;17.130;2024-03-07T09:47:45;27.30;;;13.30;;
70532;SDS011;58088;51.186;17.130;2024-03-07T09:50:16;27.00;;;12.80;;
70532;SDS011;58088;51.186;17.130;2024-03-07T09:52:48;38.20;;;14.70;;
70532;SDS011;58088;51.186;17.130;2024-03-07T09:55:19;27.50;;;10.90;;
70532;SDS011;58088;51.186;17.130;2024-03-07T09:57:47;29.10;;;13.70;;
70532;SDS011;58088;51.186;17.130;2024-03-07T10:00:17;27.50;;;12.10;;
70532;SDS011;58088;51.186;17.130;2024-03-07T10:02:57;30.80;;;13.50;;
70532;SDS011;58088;51.186;17.130;2024-03-07T10:05:27;28.90;;;12.80;;
70532;SDS011;58088;51.186;17.130;2024-03-07T10:07:54;25.70;;;12.50;;
70532;SDS011;58088;51.186;17.130;2024-03-07T10:10:21;32.70;;;15.10;;
70532;SDS011;58088;51.186;17.130;2024-03-07T10:12:51;28.30;;;13.60;;
70532;SDS011;58088;51.186;17.130;2024-03-07T10:15:36;31.40;;;13.90;;
70532;SDS011;58088;51.186;17.130;2024-03-07T10:18:08;26.80;;;12.50;;
70532;SDS011;58088;51.186;17.130;2024-03-07T10:20:42;25.00;;;11.10;;
70532;SDS011;58088;51.186;17.130;2024-03-07T10:23:10;29.00;;;14.00;;
70532;SDS011;58088;51.186;17.130;2024-03-07T10:25:36;27.60;;;13.60;;
70532;SDS011;58088;51.186;17.130;2024-03-07T10:28:04;20.80;;;10.50;;
70532;SDS011;58088;51.186;17.130;2024-03-07T10:30:40;26.40;;;11.90;;
70532;SDS011;58088;51.186;17.130;2024-03-07T10:33:07;26.60;;;12.50;;
70532;SDS011;58088;51.186;17.130;2024-03-07T10:35:33;24.40;;;11.80;;
70532;SDS011;58088;51.186;17.130;2024-03-07T10:37:59;25.50;;;12.20;;
70532;SDS011;58088;51.186;17.130;2024-03-07T10:40:26;20.70;;;9.30;;
70532;SDS011;58088;51.186;17.130;2024-03-07T10:42:57;25.00;;;12.50;;
70532;SDS011;58088;51.186;17.130;2024-03-07T10:45:28;21.60;;;11.50;;
70532;SDS011;58088;51.186;17.130;2024-03-07T10:47:57;26.10;;;12.20;;
70532;SDS011;58088;51.186;17.130;2024-03-07T10:50:38;23.10;;;10.40;;
70532;SDS011;58088;51.186;17.130;2024-03-07T10:53:19;16.10;;;7.60;;
70532;SDS011;58088;51.186;17.130;2024-03-07T10:59:08;19.30;;;8.60;;
70532;SDS011;58088;51.186;17.130;2024-03-07T11:01:49;18.30;;;9.00;;
70532;SDS011;58088;51.186;17.130;2024-03-07T11:04:25;18.20;;;8.60;;
70532;SDS011;58088;51.186;17.130;2024-03-07T11:06:52;18.70;;;9.00;;
70532;SDS011;58088;51.186;17.130;2024-03-07T11:09:19;18.80;;;8.60;;
70532;SDS011;58088;51.186;17.130;2024-03-07T11:11:49;18.80;;;10.00;;
70532;SDS011;58088;51.186;17.130;2024-03-07T11:14:17;20.30;;;9.50;;
70532;SDS011;58088;51.186;17.130;2024-03-07T11:16:44;22.10;;;10.20;;
70532;SDS011;58088;51.186;17.130;2024-03-07T11:19:38;20.50;;;9.80;;
70532;SDS011;58088;51.186;17.130;2024-03-07T11:22:05;21.70;;;10.00;;
70532;SDS011;58088;51.186;17.130;2024-03-07T11:24:43;18.70;;;9.30;;
70532;SDS011;58088;51.186;17.130;2024-03-07T11:27:11;20.10;;;9.10;;
70532;SDS011;58088;51.186;17.130;2024-03-07T11:29:48;17.90;;;9.20;;
70532;SDS011;58088;51.186;17.130;2024-03-07T11:32:23;19.70;;;9.70;;
70532;SDS011;58088;51.186;17.130;2024-03-07T11:34:49;18.90;;;8.60;;
70532;SDS011;58088;51.186;17.130;2024-03-07T11:37:21;20.40;;;9.40;;
70532;SDS011;58088;51.186;17.130;2024-03-07T11:40:10;14.10;;;6.60;;
70532;SDS011;58088;51.186;17.130;2024-03-07T11:42:47;19.80;;;9.40;;
70532;SDS011;58088;51.186;17.130;2024-03-07T11:45:19;20.30;;;10.10;;
70532;SDS011;58088;51.186;17.130;2024-03-07T11:47:55;18.90;;;8.90;;
70532;SDS011;58088;51.186;17.130;2024-03-07T11:50:41;17.80;;;7.90;;
70532;SDS011;58088;51.186;17.130;2024-03-07T11:53:09;21.20;;;9.50;;
70532;SDS011;58088;51.186;17.130;2024-03-07T11:55:39;14.80;;;6.90;;
70532;SDS011;58088;51.186;17.130;2024-03-07T11:58:18;21.30;;;10.10;;
70532;SDS011;58088;51.186;17.130;2024-03-07T12:00:50;19.60;;;9.40;;
70532;SDS011;58088;51.186;17.130;2024-03-07T12:03:20;17.70;;;8.50;;
70532;SDS011;58088;51.186;17.130;2024-03-07T12:05:51;12.10;;;5.10;;
70532;SDS011;58088;51.186;17.130;2024-03-07T12:08:18;19.50;;;7.70;;
70532;SDS011;58088;51.186;17.130;2024-03-07T12:10:48;19.80;;;9.80;;
70532;SDS011;58088;51.186;17.130;2024-03-07T12:13:19;16.20;;;7.80;;
70532;SDS011;58088;51.186;17.130;2024-03-07T12:15:46;16.70;;;7.90;;
70532;SDS011;58088;51.186;17.130;2024-03-07T12:18:13;18.00;;;8.70;;
70532;SDS011;58088;51.186;17.130;2024-03-07T12:20:44;21.70;;;9.80;;
70532;SDS011;58088;51.186;17.130;2024-03-07T12:23:22;19.00;;;8.80;;
70532;SDS011;58088;51.186;17.130;2024-03-07T12:26:01;17.40;;;8.20;;
70532;SDS011;58088;51.186;17.130;2024-03-07T12:28:28;18.70;;;8.90;;
70532;SDS011;58088;51.186;17.130;2024-03-07T12:30:59;24.30;;;10.80;;
70532;SDS011;58088;51.186;17.130;2024-03-07T12:33:29;22.80;;;10.50;;
70532;SDS011;58088;51.186;17.130;2024-03-07T12:35:57;22.40;;;10.80;;
70532;SDS011;58088;51.186;17.130;2024-03-07T12:38:32;21.60;;;10.90;;
70532;SDS011;58088;51.186;17.130;2024-03-07T12:41:09;18.40;;;10.00;;
70532;SDS011;58088;51.186;17.130;2024-03-07T12:43:40;18.30;;;9.30;;
70532;SDS011;58088;51.186;17.130;2024-03-07T12:46:11;19.80;;;9.70;;
70532;SDS011;58088;51.186;17.130;2024-03-07T12:48:41;19.80;;;9.40;;
70532;SDS011;58088;51.186;17.130;2024-03-07T12:51:10;22.20;;;9.90;;
70532;SDS011;58088;51.186;17.130;2024-03-07T12:53:37;21.00;;;10.50;;
70532;SDS011;58088;51.186;17.130;2024-03-07T12:56:03;20.70;;;10.40;;
70532;SDS011;58088;51.186;17.130;2024-03-07T12:58:30;18.90;;;9.20;;
70532;SDS011;58088;51.186;17.130;2024-03-07T13:00:56;20.90;;;10.00;;
70532;SDS011;58088;51.186;17.130;2024-03-07T13:03:25;18.30;;;9.50;;
70532;SDS011;58088;51.186;17.130;2024-03-07T13:06:01;20.10;;;8.30;;
70532;SDS011;58088;51.186;17.130;2024-03-07T13:08:30;18.20;;;9.60;;
70532;SDS011;58088;51.186;17.130;2024-03-07T13:10:57;19.20;;;9.70;;
70532;SDS011;58088;51.186;17.130;2024-03-07T13:13:24;21.80;;;11.10;;
70532;SDS011;58088;51.186;17.130;2024-03-07T13:15:51;20.20;;;11.20;;
70532;SDS011;58088;51.186;17.130;2024-03-07T13:18:20;21.50;;;11.90;;
70532;SDS011;58088;51.186;17.130;2024-03-07T13:20:47;19.50;;;10.40;;
70532;SDS011;58088;51.186;17.130;2024-03-07T13:23:14;18.20;;;9.20;;
70532;SDS011;58088;51.186;17.130;2024-03-07T13:25:40;23.90;;;10.80;;
70532;SDS011;58088;51.186;17.130;2024-03-07T13:28:14;20.10;;;9.70;;
70532;SDS011;58088;51.186;17.130;2024-03-07T13:30:50;19.20;;;9.50;;
70532;SDS011;58088;51.186;17.130;2024-03-07T13:33:16;20.80;;;10.00;;
70532;SDS011;58088;51.186;17.130;2024-03-07T13:35:43;21.30;;;10.30;;
70532;SDS011;58088;51.186;17.130;2024-03-07T13:38:09;23.20;;;11.20;;
70532;SDS011;58088;51.186;17.130;2024-03-07T13:40:36;20.90;;;10.90;;
70532;SDS011;58088;51.186;17.130;2024-03-07T13:43:06;24.60;;;10.30;;
70532;SDS011;58088;51.186;17.130;2024-03-07T13:45:35;21.70;;;9.80;;
70532;SDS011;58088;51.186;17.130;2024-03-07T13:48:07;23.40;;;10.30;;
70532;SDS011;58088;51.186;17.130;2024-03-07T13:50:37;19.00;;;9.60;;
70532;SDS011;58088;51.186;17.130;2024-03-07T13:53:06;18.80;;;9.50;;
70532;SDS011;58088;51.186;17.130;2024-03-07T14:02:05;22.90;;;10.20;;
70532;SDS011;58088;51.186;17.130;2024-03-07T14:20:50;21.40;;;10.60;;
70532;SDS011;58088;51.186;17.130;2024-03-07T14:32:53;22.10;;;10.40;;
70532;SDS011;58088;51.186;17.130;2024-03-07T14:40:42;16.80;;;7.60;;
70532;SDS011;58088;51.186;17.130;2024-03-07T14:43:15;22.70;;;10.20;;
70532;SDS011;58088;51.186;17.130;2024-03-07T14:45:43;22.10;;;10.40;;
70532;SDS011;58088;51.186;17.130;2024-03-07T14:48:11;20.60;;;9.60;;
70532;SDS011;58088;51.186;17.130;2024-03-07T14:50:42;20.10;;;9.80;;
70532;SDS011;58088;51.186;17.130;2024-03-07T14:53:14;24.60;;;11.70;;
70532;SDS011;58088;51.186;17.130;2024-03-07T14:55:45;22.10;;;12.20;;
70532;SDS011;58088;51.186;17.130;2024-03-07T14:58:11;23.70;;;11.40;;
70532;SDS011;58088;51.186;17.130;2024-03-07T15:00:42;20.20;;;10.50;;
70532;SDS011;58088;51.186;17.130;2024-03-07T15:03:11;21.30;;;11.00;;
70532;SDS011;58088;51.186;17.130;2024-03-07T15:05:43;21.60;;;10.50;;
70532;SDS011;58088;51.186;17.130;2024-03-07T15:08:13;16.30;;;8.20;;